Terminal Aerodrome Forecast
Issued by NWS

Home | Current Version | Previous Version | Text Only | Print | Product List | Glossary On
Versions: 1 2 3 4 5 6 7 8 9 10 11 12 13 14
740
FTPA31 PHFO 062325
TAFHMK
TAF
PHMK 062325Z 0700/0724 32011KT P6SM VCSH SCT025 BKN040
     FM070600 VRB06KT P6SM VCSH SCT035 BKN040
     FM072000 03012G18KT P6SM VCSH SCT015 BKN035=

USA.gov is the U.S. government's official web portal to all federal, state and local government web resources and services.